Pubnico, Canada
Current Conditions -  °F | °C
As of 9:00 AM on Friday 19 Dec 2014 (Local Time) from CYQI Reporting Station
Snow Showers Snow Showers  
Wind Chill: 21°   Ceiling: 1500
Heat Index: 32°   Visibility: 3mi
Dew Point: 30°   Wind: 16mph
Humidity: 93%   Direction: 320°NW
Pressure: 29.76"   Gusts: NA
Location:  43.7°N, 65.78°W
Report Text: CYQI 191300Z 32014KT 3SM -SHSN BKN015 00/M01 A2976 RMK SC7 SLP080
Loading
Personal Weather Stations






























Interactive Weather Map New forecast layout! Learn more

10-Day Weather Forecast

Advertisements
Track Severe Weather on mobile